»·PEaware :: N5002T KSBA-KSBA

N5002T :: KSBA-KSBA

FLIGHT INFORMATION

Flight Status: Arrived
Operator: Privately registered:
United States
More flights under this callsign
Pilot: Hunter M. (19355)
Aircraft: CESSNA 172 SKYHAWK
(C172)
More flights by this aircraft type
Origin: KSBA Santa Barbara Mun
United States
Destination: KSBA Santa Barbara Mun
United States
More flights between these airports :: More routes between these airports
Route: +GVO
File this flight plan on PilotEdge
Remarks: Practice approaches
Altitude:
(Current/Filed)
3,500ft
Speed:
(Current/Filed)
118kts
Departed: 06-Jul-19 01:44 PM
Arrived: 06-Jul-19 02:53 PM
Distance/Time
Traveled:
0nm/1:08
Distance/Time
To Go:
Arrived

Flight Plot

Page will automatically refresh every two minutes.


Map Options




Map Legend


Flown Route
Filed Route
Departure Airport
Arrival Airport
Navaid (VOR, NDB)
Fix

Horizontal Profiles

Position Reports

Time Latitude Longitude Heading Altitude Ground
Speed
06-Jul-19 13:13 34.431455 -119.831911 357 13ft 0kts
06-Jul-19 13:14 34.431455 -119.831911 357 13ft 0kts
06-Jul-19 13:15 34.431455 -119.831911 357 13ft 0kts
06-Jul-19 13:16 34.431455 -119.831911 357 13ft 0kts
06-Jul-19 13:17 34.431455 -119.831911 357 13ft 0kts
06-Jul-19 13:18 34.431455 -119.831911 357 13ft 0kts
06-Jul-19 13:19 34.431455 -119.831911 357 13ft 0kts
06-Jul-19 13:20 34.431455 -119.831911 357 13ft 0kts
06-Jul-19 13:21 34.431455 -119.831911 357 13ft 0kts
06-Jul-19 13:22 34.431455 -119.831911 357 13ft 0kts
06-Jul-19 13:23 34.431455 -119.831911 357 13ft 0kts
06-Jul-19 13:24 34.431455 -119.831911 357 13ft 0kts
06-Jul-19 13:25 34.431455 -119.831911 357 13ft 0kts
06-Jul-19 13:26 34.431455 -119.831911 357 13ft 0kts
06-Jul-19 13:27 34.431455 -119.831911 357 13ft 0kts
06-Jul-19 13:28 34.431455 -119.831911 357 13ft 0kts
06-Jul-19 13:29 34.431455 -119.831911 357 13ft 0kts
06-Jul-19 13:30 34.431455 -119.831911 357 13ft 0kts
06-Jul-19 13:31 34.431455 -119.831911 357 13ft 0kts
06-Jul-19 13:32 34.431455 -119.831911 357 13ft 0kts
06-Jul-19 13:33 34.431455 -119.831911 357 13ft 0kts
06-Jul-19 13:34 34.431455 -119.831911 357 13ft 0kts
06-Jul-19 13:35 34.431296 -119.832180 162 13ft 13kts
06-Jul-19 13:36 34.429078 -119.832782 266 13ft 14kts
06-Jul-19 13:37 34.428577 -119.835181 180 13ft 0kts
06-Jul-19 13:38 34.428576 -119.835181 180 13ft 0kts
06-Jul-19 13:39 34.428576 -119.835181 180 13ft 0kts
06-Jul-19 13:40 34.428575 -119.835181 180 13ft 0kts
06-Jul-19 13:41 34.428575 -119.835181 180 13ft 0kts
06-Jul-19 13:42 34.427912 -119.835423 246 13ft 9kts
06-Jul-19 13:43 34.427707 -119.842643 268 36ft 80kts
06-Jul-19 13:44 34.425556 -119.872069 262 774ft 92kts
06-Jul-19 13:45 34.421989 -119.903135 261 1477ft 93kts
06-Jul-19 13:46 34.418432 -119.933862 261 2163ft 91kts
06-Jul-19 13:47 34.410730 -119.958690 159 2825ft 88kts
06-Jul-19 13:48 34.402336 -119.927810 96 3019ft 114kts
06-Jul-19 13:49 34.398945 -119.890715 97 2990ft 103kts
06-Jul-19 13:50 34.395505 -119.857591 97 2997ft 95kts
06-Jul-19 13:51 34.392247 -119.825735 97 3000ft 95kts
06-Jul-19 13:52 34.389019 -119.793872 96 2999ft 95kts
06-Jul-19 13:53 34.387744 -119.761922 88 3000ft 95kts
06-Jul-19 13:54 34.388293 -119.729982 88 2994ft 93kts
06-Jul-19 13:55 34.381468 -119.700631 110 3000ft 90kts
06-Jul-19 13:56 34.374404 -119.671397 115 3000ft 90kts
06-Jul-19 13:57 34.362650 -119.643746 112 2993ft 98kts
06-Jul-19 13:58 34.353333 -119.614622 109 2997ft 90kts
06-Jul-19 13:59 34.344102 -119.586363 138 2995ft 90kts
06-Jul-19 14:00 34.321503 -119.573097 155 3000ft 90kts
06-Jul-19 14:01 34.312244 -119.556297 354 2995ft 88kts
06-Jul-19 14:02 34.334766 -119.568821 330 3000ft 91kts
06-Jul-19 14:03 34.345780 -119.595837 290 2910ft 96kts
06-Jul-19 14:04 34.355573 -119.628378 289 2298ft 105kts
06-Jul-19 14:05 34.365379 -119.659516 292 2069ft 88kts
06-Jul-19 14:06 34.374314 -119.686466 291 2103ft 87kts
06-Jul-19 14:07 34.384372 -119.713298 299 2100ft 87kts
06-Jul-19 14:08 34.396494 -119.739039 299 2099ft 87kts
06-Jul-19 14:09 34.406133 -119.765571 288 1877ft 85kts
06-Jul-19 14:10 34.413942 -119.793121 289 1446ft 86kts
06-Jul-19 14:11 34.424707 -119.819493 299 862ft 89kts
06-Jul-19 14:12 34.422596 -119.843397 208 1351ft 81kts
06-Jul-19 14:13 34.402817 -119.858294 216 2080ft 85kts
06-Jul-19 14:15 34.383822 -119.875066 216 2818ft 86kts
06-Jul-19 14:16 34.364218 -119.892308 216 3520ft 87kts
06-Jul-19 14:17 34.343390 -119.909635 216 4036ft 102kts
06-Jul-19 14:18 34.320786 -119.934798 180 3994ft 120kts
06-Jul-19 14:19 34.299611 -119.906756 124 3987ft 108kts
06-Jul-19 14:20 34.282484 -119.878407 124 3999ft 102kts
06-Jul-19 14:21 34.263212 -119.852991 136 4000ft 103kts
06-Jul-19 14:22 34.248224 -119.827272 44 3992ft 96kts
06-Jul-19 14:23 34.262130 -119.847031 313 4004ft 95kts
06-Jul-19 14:24 34.281111 -119.869491 327 3995ft 95kts
06-Jul-19 14:25 34.278511 -119.849699 136 4012ft 102kts
06-Jul-19 14:26 34.257022 -119.826568 152 3997ft 104kts
06-Jul-19 14:27 34.257987 -119.846133 316 4010ft 94kts
06-Jul-19 14:28 34.276798 -119.868830 316 3999ft 95kts
06-Jul-19 14:29 34.286232 -119.862546 136 4024ft 98kts
06-Jul-19 14:30 34.265371 -119.839023 135 3999ft 103kts
06-Jul-19 14:30 34.251171 -119.817053 86 4013ft 99kts
06-Jul-19 14:32 34.250553 -119.777399 88 3999ft 101kts
06-Jul-19 14:33 34.250026 -119.743147 88 3999ft 101kts
06-Jul-19 14:33 34.249619 -119.714728 88 3999ft 101kts
06-Jul-19 14:35 34.249094 -119.674921 88 4000ft 101kts
06-Jul-19 14:36 34.248686 -119.640756 88 4000ft 101kts
06-Jul-19 14:36 34.248374 -119.612252 88 4000ft 101kts
06-Jul-19 14:37 34.248037 -119.578061 88 4000ft 101kts
06-Jul-19 14:39 34.249591 -119.539906 43 3996ft 94kts
06-Jul-19 14:39 34.265638 -119.521711 41 4001ft 96kts
06-Jul-19 14:40 34.286789 -119.510552 317 4012ft 94kts
06-Jul-19 14:41 34.308964 -119.533776 318 3648ft 115kts
06-Jul-19 14:42 34.324799 -119.563894 286 3493ft 102kts
06-Jul-19 14:43 34.338070 -119.596281 297 3054ft 114kts
06-Jul-19 14:44 34.353026 -119.630658 297 2365ft 114kts
06-Jul-19 14:45 34.366877 -119.662620 297 2054ft 97kts
06-Jul-19 14:46 34.378364 -119.691167 287 2104ft 95kts
06-Jul-19 14:47 34.387422 -119.721597 297 2098ft 95kts
06-Jul-19 14:48 34.400589 -119.749448 297 1744ft 95kts
06-Jul-19 14:49 34.410448 -119.778803 296 1275ft 91kts
06-Jul-19 14:50 34.419545 -119.804132 290 786ft 76kts
06-Jul-19 14:51 34.427793 -119.827053 284 300ft 73kts
06-Jul-19 14:52 34.427684 -119.845377 269 13ft 18kts
06-Jul-19 14:53 34.428391 -119.846451 15 13ft 0kts
06-Jul-19 14:54 34.429099 -119.846487 350 13ft 0kts

Navigation Log

Ident Type
Flight plan parsing failed, navigation log unavailable